Time;durP1;ratioP1;P1;durP2;ratioP2;P2;SDS_P1;SDS_P2;PMS_P1;PMS_P2;Temp;Humidity;BMP_temperature;BMP_pressure;BME280_temperature;BME280_humidity;BME280_pressure;Samples;Min_cycle;Max_cycle;Signal;HPM_P1;HPM_P2
2023/07/08 00:01:53;;;;;;;;;;;;;;;-140.72;0.00;52222.44;4986919;28;19921;-71
2023/07/08 00:04:18;;;;;;;;;;;;;;;-140.72;0.00;52220.41;4987919;28;19985;-70
2023/07/08 00:06:43;;;;;;;;;;;;;;;-140.72;0.00;52212.31;4987202;28;20245;-71
2023/07/08 00:09:11;;;;;;;;;;;;;;;-140.72;0.00;52232.59;4969945;28;19930;-70
2023/07/08 00:11:36;;;;;;;;;;;;;;;-140.72;0.00;52216.34;4988173;28;19922;-70
2023/07/08 00:14:02;;;;;;;;;;;;;;;-140.72;0.00;52246.78;4954021;28;19933;-70
2023/07/08 00:16:27;;;;;;;;;;;;;;;-140.72;0.00;52216.34;4988917;28;19929;-70
2023/07/08 00:18:52;;;;;;;;;;;;;;;-140.72;0.00;52242.75;4986461;28;20065;-70
2023/07/08 00:21:17;;;;;;;;;;;;;;;-140.72;0.00;52230.56;4987118;28;19932;-70
2023/07/08 00:23:44;;;;;;;;;;;;;;;-140.72;0.00;52189.97;4970461;28;20167;-70
2023/07/08 00:26:11;;;;;;;;;;;;;;;-140.72;0.00;52287.38;4987142;28;19933;-70
2023/07/08 00:28:36;;;;;;;;;;;;;;;-140.72;0.00;52244.78;4987796;28;19928;-70
2023/07/08 00:31:02;;;;;;;;;;;;;;;-140.72;0.00;52220.41;4986880;28;19929;-70
2023/07/08 00:33:27;;;;;;;;;;;;;;;-140.72;0.00;52224.47;4988047;28;20443;-70
2023/07/08 00:35:52;;;;;;;;;;;;;;;-140.72;0.00;52222.44;4988330;28;20368;-71
2023/07/08 00:38:17;;;;;;;;;;;;;;;-140.72;0.00;52226.50;4986373;28;19930;-70
2023/07/08 00:40:58;;;;;;;;;;;;;;;-140.72;0.00;52208.25;4987834;28;20296;-70
2023/07/08 00:43:33;;;;;;;;;;;;;;;-140.72;0.00;52271.16;4984675;28;19921;-70
2023/07/08 00:46:11;;;;;;;;;;;;;;;-140.72;0.00;52228.53;4987845;28;20017;-70
2023/07/08 00:48:37;;;;;;;;;;;;;;;-140.72;0.00;52232.59;4987750;28;19922;-70
2023/07/08 00:51:02;;;;;;;;;;;;;;;-140.72;0.00;52258.97;4987671;28;20286;-70
2023/07/08 00:53:29;;;;;;;;;;;;;;;-140.72;0.00;52242.75;4983783;28;19934;-70
2023/07/08 00:56:20;;;;;;;;;;;;;;;-140.72;0.00;52214.34;4981639;28;19973;-70
2023/07/08 00:58:48;;;;;;;;;;;;;;;-140.72;0.00;52269.13;4981890;28;20291;-70
2023/07/08 01:01:15;;;;;;;;;;;;;;;-140.72;0.00;52240.72;4970184;28;19922;-70
2023/07/08 01:03:48;;;;;;;;;;;;;;;-140.72;0.00;52299.56;4986026;28;19977;-70
2023/07/08 01:06:14;;;;;;;;;;;;;;;-140.72;0.00;52200.13;4982085;28;19937;-70
2023/07/08 01:08:39;;;;;;;;;;;;;;;-140.72;0.00;52234.63;4984398;28;20322;-70
2023/07/08 01:11:04;;;;;;;;;;;;;;;-140.72;0.00;52297.53;4986732;28;20372;-70
2023/07/08 01:13:32;;;;;;;;;;;;;;;-140.72;0.00;52228.53;4984040;28;20026;-70
2023/07/08 01:15:57;;;;;;;;;;;;;;;-140.72;0.00;52258.97;4991455;28;20411;-70
2023/07/08 01:18:24;;;;;;;;;;;;;;;-140.72;0.00;52232.59;4968266;28;19922;-70
2023/07/08 01:20:50;;;;;;;;;;;;;;;-140.72;0.00;52267.09;5003182;28;19923;-71
2023/07/08 01:23:16;;;;;;;;;;;;;;;-140.72;0.00;52285.34;4968960;28;20099;-70
2023/07/08 01:25:42;;;;;;;;;;;;;;;-140.72;0.00;52265.06;4984131;28;19940;-70
2023/07/08 01:28:07;;;;;;;;;;;;;;;-140.72;0.00;52281.28;4985186;28;20000;-70
2023/07/08 01:30:33;;;;;;;;;;;;;;;-140.72;0.00;52265.06;4985625;28;20115;-70
2023/07/08 01:33:01;;;;;;;;;;;;;;;-140.72;0.00;52285.34;4987125;28;19926;-70
2023/07/08 01:35:26;;;;;;;;;;;;;;;-140.72;0.00;52252.88;4965823;28;20009;-70
2023/07/08 01:37:53;;;;;;;;;;;;;;;-140.72;0.00;52256.94;4989148;28;20004;-70
2023/07/08 01:40:18;;;;;;;;;;;;;;;-140.72;0.00;52271.16;4992555;28;19925;-70
2023/07/08 01:42:44;;;;;;;;;;;;;;;-140.72;0.00;52295.50;4988673;28;20279;-71
2023/07/08 01:45:13;;;;;;;;;;;;;;;-140.72;0.00;52283.31;4991580;28;20271;-70
2023/07/08 01:47:40;;;;;;;;;;;;;;;-140.72;0.00;52275.19;4989156;28;19922;-70
2023/07/08 01:50:06;;;;;;;;;;;;;;;-140.72;0.00;52281.28;4991030;28;19921;-70
2023/07/08 01:52:31;;;;;;;;;;;;;;;-140.72;0.00;52283.31;4988557;28;19930;-70
2023/07/08 01:54:57;;;;;;;;;;;;;;;-140.72;0.00;52285.34;4992402;28;20008;-70
2023/07/08 01:57:22;;;;;;;;;;;;;;;-140.72;0.00;52269.13;4989755;28;20974;-70
2023/07/08 01:59:47;;;;;;;;;;;;;;;-140.72;0.00;52289.41;4991271;28;19926;-70
2023/07/08 02:02:13;;;;;;;;;;;;;;;-140.72;0.00;52289.41;4988972;28;21283;-71
2023/07/08 02:04:38;;;;;;;;;;;;;;;-140.72;0.00;52340.13;4989607;28;19929;-70
2023/07/08 02:07:04;;;;;;;;;;;;;;;-140.72;0.00;52275.19;4990671;28;20037;-70
2023/07/08 02:09:30;;;;;;;;;;;;;;;-140.72;0.00;52303.59;4989626;28;19971;-70
2023/07/08 02:11:55;;;;;;;;;;;;;;;-140.72;0.00;52291.44;4987202;28;20008;-70
2023/07/08 02:14:20;;;;;;;;;;;;;;;-140.72;0.00;52277.22;4984024;28;19933;-71
2023/07/08 02:16:46;;;;;;;;;;;;;;;-140.72;0.00;52313.75;4990405;28;19930;-70
2023/07/08 02:19:11;;;;;;;;;;;;;;;-140.72;0.00;52271.16;4989689;28;20439;-70
2023/07/08 02:21:37;;;;;;;;;;;;;;;-140.72;0.00;52291.44;4986023;28;20395;-71
2023/07/08 02:24:02;;;;;;;;;;;;;;;-140.72;0.00;52313.75;4987182;28;20016;-71
2023/07/08 02:26:28;;;;;;;;;;;;;;;-140.72;0.00;52311.72;4988993;28;19929;-71
2023/07/08 02:28:53;;;;;;;;;;;;;;;-140.72;0.00;52301.59;4987836;28;20412;-71
2023/07/08 02:31:18;;;;;;;;;;;;;;;-140.72;0.00;52315.78;4990003;28;19933;-71
2023/07/08 02:33:43;;;;;;;;;;;;;;;-140.72;0.00;52323.91;4987679;28;19946;-71
2023/07/08 02:36:08;;;;;;;;;;;;;;;-140.72;0.00;52311.72;4994984;28;19926;-72
2023/07/08 02:38:34;;;;;;;;;;;;;;;-140.72;0.00;52309.69;4991796;28;19921;-72
2023/07/08 02:40:59;;;;;;;;;;;;;;;-140.72;0.00;52315.78;4993582;28;20017;-72
2023/07/08 02:43:25;;;;;;;;;;;;;;;-140.72;0.00;52309.69;4994782;28;20004;-71
2023/07/08 02:46:05;;;;;;;;;;;;;;;-140.72;3.72;52330.00;4994787;28;19925;-71
2023/07/08 02:48:31;;;;;;;;;;;;;;;-140.72;9.72;52291.44;4992496;28;20376;-70
2023/07/08 02:51:00;;;;;;;;;;;;;;;-140.72;10.24;52315.78;4992645;28;19921;-71
2023/07/08 02:53:25;;;;;;;;;;;;;;;-140.72;9.84;52334.03;4987037;28;19922;-71
2023/07/08 02:55:50;;;;;;;;;;;;;;;-140.72;19.31;52295.50;4993037;28;19925;-71
2023/07/08 02:58:21;;;;;;;;;;;;;;;-140.72;15.38;52338.09;4988538;28;19933;-70
2023/07/08 03:01:00;;;;;;;;;;;;;;;-140.72;26.27;52319.84;4989122;28;20289;-71
2023/07/08 03:03:30;;;;;;;;;;;;;;;-140.72;34.69;52325.94;4994845;28;19922;-71
2023/07/08 03:06:00;;;;;;;;;;;;;;;-140.72;43.15;52313.75;4993818;28;19930;-71
2023/07/08 03:08:26;;;;;;;;;;;;;;;-140.72;41.17;52317.81;4990758;28;20388;-71
2023/07/08 03:10:59;;;;;;;;;;;;;;;-140.72;37.62;52330.00;4972547;28;20025;-70
2023/07/08 03:13:25;;;;;;;;;;;;;;;-140.72;29.66;52325.94;4994163;28;20221;-70
2023/07/08 03:15:50;;;;;;;;;;;;;;;-140.72;34.76;52338.09;4988306;28;19921;-70
2023/07/08 03:18:16;;;;;;;;;;;;;;;-140.72;41.96;52309.69;4993428;28;20019;-69
2023/07/08 03:20:44;;;;;;;;;;;;;;;-140.72;37.44;52334.03;4989433;28;20518;-70
2023/07/08 03:23:10;;;;;;;;;;;;;;;-140.72;41.66;52350.28;4987454;28;20258;-70
2023/07/08 03:25:36;;;;;;;;;;;;;;;-140.72;48.62;52317.81;4985201;28;20028;-70
2023/07/08 03:28:14;;;;;;;;;;;;;;;-140.72;41.75;52344.19;4975504;28;19922;-70
2023/07/08 03:30:39;;;;;;;;;;;;;;;-140.72;46.70;52348.25;4992803;28;20352;-70
2023/07/08 03:33:05;;;;;;;;;;;;;;;-140.72;46.29;52338.09;4991380;28;19936;-70
2023/07/08 03:35:32;;;;;;;;;;;;;;;-140.72;48.37;52332.03;4982427;28;19950;-70
2023/07/08 03:37:57;;;;;;;;;;;;;;;-140.72;50.24;52317.81;4974810;28;19922;-69
2023/07/08 03:40:23;;;;;;;;;;;;;;;-140.72;57.82;52354.34;4988197;28;19922;-69
2023/07/08 03:42:48;;;;;;;;;;;;;;;-140.72;69.93;52301.59;4986509;28;20010;-70
2023/07/08 03:45:13;;;;;;;;;;;;;;;-140.72;79.91;52348.25;4990968;28;20407;-69
2023/07/08 03:47:39;;;;;;;;;;;;;;;-140.72;83.15;52289.41;4991772;28;19980;-73
2023/07/08 03:50:05;;;;;;;;;;;;;;;-140.72;77.59;52354.34;4991465;28;19921;-70
2023/07/08 03:52:30;;;;;;;;;;;;;;;-140.72;75.65;52342.16;4993296;28;19928;-70
2023/07/08 03:54:57;;;;;;;;;;;;;;;-140.72;79.26;52321.88;4971251;28;19922;-70
2023/07/08 03:57:22;;;;;;;;;;;;;;;-140.72;70.55;52334.03;4990923;28;19922;-69
2023/07/08 03:59:55;;;;;;;;;;;;;;;-140.72;81.43;52330.00;4989623;28;20059;-70
2023/07/08 04:02:20;;;;;;;;;;;;;;;-140.72;86.41;52342.16;4985012;28;20015;-70
2023/07/08 04:04:46;;;;;;;;;;;;;;;-140.72;74.31;52307.66;4987959;28;20045;-70
2023/07/08 04:07:12;;;;;;;;;;;;;;;-140.72;79.86;52366.50;4972659;28;19930;-70
2023/07/08 04:09:38;;;;;;;;;;;;;;;-140.72;84.42;52342.16;4992923;28;19984;-70
2023/07/08 04:12:10;;;;;;;;;;;;;;;-140.72;82.65;52303.59;4989040;28;19922;-70
2023/07/08 04:14:44;;;;;;;;;;;;;;;-140.72;72.21;52342.16;4992869;28;20301;-70
2023/07/08 04:17:10;;;;;;;;;;;;;;;-140.72;69.24;52289.41;4985563;28;19932;-70
2023/07/08 04:19:36;;;;;;;;;;;;;;;-140.72;63.31;52313.75;4992571;28;19922;-69
2023/07/08 04:22:01;;;;;;;;;;;;;;;-140.72;70.47;52362.44;4984951;28;20125;-70
2023/07/08 04:24:26;;;;;;;;;;;;;;;-140.72;68.49;52285.34;4990898;28;19921;-70
2023/07/08 04:26:52;;;;;;;;;;;;;;;-140.72;62.47;52336.06;4989610;28;20832;-70
2023/07/08 04:29:20;;;;;;;;;;;;;;;-140.72;64.99;52344.19;4990805;28;20017;-70
2023/07/08 04:31:46;;;;;;;;;;;;;;;-140.72;64.52;52362.44;4988497;28;19976;-70
2023/07/08 04:34:13;;;;;;;;;;;;;;;-140.72;64.41;52344.19;4992463;28;20256;-70
2023/07/08 04:36:39;;;;;;;;;;;;;;;-140.72;64.13;52291.44;4987338;28;20334;-70
2023/07/08 04:39:05;;;;;;;;;;;;;;;-140.72;61.01;52317.81;4991923;28;20017;-70
2023/07/08 04:41:30;;;;;;;;;;;;;;;-140.72;51.52;52334.03;4987706;28;20359;-70
2023/07/08 04:43:57;;;;;;;;;;;;;;;-140.72;50.61;52321.88;4972493;28;19922;-70
2023/07/08 04:46:40;;;;;;;;;;;;;;;-140.72;43.09;52334.03;4990950;28;19921;-70
2023/07/08 04:49:06;;;;;;;;;;;;;;;-140.72;40.92;52283.31;4983875;28;19977;-70
2023/07/08 04:51:31;;;;;;;;;;;;;;;-140.72;37.50;52323.91;4985808;28;19934;-73
2023/07/08 04:54:08;;;;;;;;;;;;;;;-140.72;38.20;52334.03;4989058;28;20060;-72
2023/07/08 04:56:41;;;;;;;;;;;;;;;-140.72;41.74;52313.75;4980307;28;19925;-73
2023/07/08 04:59:10;;;;;;;;;;;;;;;-140.72;44.45;52334.03;4990767;28;19957;-73
2023/07/08 05:01:35;;;;;;;;;;;;;;;-140.72;46.11;52317.81;4965778;28;19926;-69
2023/07/08 05:04:01;;;;;;;;;;;;;;;-140.72;51.43;52342.16;4990685;28;19957;-71
2023/07/08 05:06:26;;;;;;;;;;;;;;;-140.72;47.34;52340.13;4987442;28;20431;-71
2023/07/08 05:08:51;;;;;;;;;;;;;;;-140.72;54.10;52301.59;4970490;28;19922;-70
2023/07/08 05:11:18;;;;;;;;;;;;;;;-140.72;44.94;52305.63;4987831;28;20277;-70
2023/07/08 05:13:45;;;;;;;;;;;;;;;-140.72;47.61;52303.59;4971623;28;19976;-70
2023/07/08 05:16:11;;;;;;;;;;;;;;;-140.72;39.16;52303.59;4990731;28;20288;-71
2023/07/08 05:18:36;;;;;;;;;;;;;;;-140.72;36.96;52321.88;4992104;28;19980;-70
2023/07/08 05:21:11;;;;;;;;;;;;;;;-140.72;36.60;52297.53;4991082;28;20294;-70
2023/07/08 05:23:36;;;;;;;;;;;;;;;-140.72;37.31;52311.72;4990889;28;19928;-70
2023/07/08 05:26:03;;;;;;;;;;;;;;;-140.72;38.05;52334.03;4985201;28;20021;-70
2023/07/08 05:28:28;;;;;;;;;;;;;;;-140.72;37.00;52307.66;4983079;28;20027;-70
2023/07/08 05:30:55;;;;;;;;;;;;;;;-140.72;39.73;52313.75;4987106;28;20330;-70
2023/07/08 05:33:20;;;;;;;;;;;;;;;-140.72;37.16;52263.03;4989699;28;20004;-70
2023/07/08 05:35:46;;;;;;;;;;;;;;;-140.72;27.31;52303.59;4989181;28;19953;-70
2023/07/08 05:38:11;;;;;;;;;;;;;;;-140.72;29.83;52293.47;4991238;28;19922;-70
2023/07/08 05:40:36;;;;;;;;;;;;;;;-140.72;25.61;52295.50;4986749;28;19933;-71
2023/07/08 05:43:01;;;;;;;;;;;;;;;-140.72;23.11;52289.41;4991242;28;20383;-71
2023/07/08 05:45:27;;;;;;;;;;;;;;;-140.72;20.55;52265.06;4982886;28;20008;-75
2023/07/08 05:47:52;;;;;;;;;;;;;;;-140.72;21.65;52289.41;4989665;28;19952;-70
2023/07/08 05:50:17;;;;;;;;;;;;;;;-140.72;6.32;52317.81;4991880;28;19922;-70
2023/07/08 05:52:42;;;;;;;;;;;;;;;-140.72;5.08;52273.19;4992811;28;19925;-70
2023/07/08 05:55:08;;;;;;;;;;;;;;;-140.72;0.00;52254.91;4992917;28;19925;-70
2023/07/08 05:57:33;;;;;;;;;;;;;;;-140.72;0.00;52258.97;4992759;28;19917;-70
2023/07/08 05:59:58;;;;;;;;;;;;;;;-140.72;0.00;52291.44;4982370;28;20388;-70
2023/07/08 06:02:25;;;;;;;;;;;;;;;-140.72;0.00;52256.94;4989714;28;20000;-71
2023/07/08 06:04:51;;;;;;;;;;;;;;;-140.72;0.00;52246.78;4992836;28;19925;-71
2023/07/08 06:07:16;;;;;;;;;;;;;;;-140.72;0.00;52265.06;4991454;28;19922;-71
2023/07/08 06:09:42;;;;;;;;;;;;;;;-140.72;0.00;52261.00;4979918;28;19960;-71
2023/07/08 06:12:13;;;;;;;;;;;;;;;-140.72;0.00;52261.00;4981637;28;19922;-71
2023/07/08 06:14:39;;;;;;;;;;;;;;;-140.72;0.00;52218.38;4975970;28;19918;-72
2023/07/08 06:17:04;;;;;;;;;;;;;;;-140.72;0.00;52236.66;4981747;28;19972;-71
2023/07/08 06:19:29;;;;;;;;;;;;;;;-140.72;0.00;52250.84;4983525;28;20292;-70
2023/07/08 06:21:55;;;;;;;;;;;;;;;-140.72;0.00;52214.34;4981960;28;19925;-71
2023/07/08 06:24:20;;;;;;;;;;;;;;;-140.72;0.00;52246.78;4985407;28;19917;-71
2023/07/08 06:26:46;;;;;;;;;;;;;;;-140.72;0.00;52196.06;4977323;28;19923;-71
2023/07/08 06:29:11;;;;;;;;;;;;;;;-140.72;0.00;52220.41;4987530;28;20009;-70
2023/07/08 06:31:36;;;;;;;;;;;;;;;-140.72;0.00;52265.06;4991013;28;19922;-71
2023/07/08 06:34:02;;;;;;;;;;;;;;;-140.72;0.00;52232.59;4987311;28;19918;-71
2023/07/08 06:36:27;;;;;;;;;;;;;;;-140.72;0.00;52192.00;4984376;28;20013;-71
2023/07/08 06:38:52;;;;;;;;;;;;;;;-140.72;0.00;52208.25;4992000;28;19973;-70
2023/07/08 06:41:17;;;;;;;;;;;;;;;-140.72;0.00;52228.53;5005848;28;19922;-72
2023/07/08 06:43:43;;;;;;;;;;;;;;;-140.72;0.00;52177.81;4996668;28;19988;-75
2023/07/08 06:46:08;;;;;;;;;;;;;;;-140.72;0.00;52220.41;4975528;28;19925;-71
2023/07/08 06:48:33;;;;;;;;;;;;;;;-140.72;0.00;52192.00;4992279;28;19992;-72
2023/07/08 06:50:59;;;;;;;;;;;;;;;-140.72;0.00;52196.06;4977981;28;19922;-72
2023/07/08 06:53:24;;;;;;;;;;;;;;;-140.72;0.00;52206.22;4984493;28;20098;-70
2023/07/08 06:55:50;;;;;;;;;;;;;;;-140.72;0.00;52218.38;4982668;28;19922;-71
2023/07/08 06:58:15;;;;;;;;;;;;;;;-140.72;0.00;52218.38;4963637;28;19919;-71
2023/07/08 07:00:44;;;;;;;;;;;;;;;-140.72;0.00;52202.16;4991450;28;19918;-71
2023/07/08 07:03:09;;;;;;;;;;;;;;;-140.72;0.00;52187.97;4996302;28;19937;-71
2023/07/08 07:05:35;;;;;;;;;;;;;;;-140.72;0.00;52165.63;4978291;28;19918;-71
2023/07/08 07:08:00;;;;;;;;;;;;;;;-140.72;0.00;52192.00;4978911;28;19928;-71
2023/07/08 07:10:25;;;;;;;;;;;;;;;-140.72;0.00;52179.84;4977805;28;19958;-71
2023/07/08 07:12:50;;;;;;;;;;;;;;;-140.72;0.00;52171.72;4995006;28;19918;-71
2023/07/08 07:15:16;;;;;;;;;;;;;;;-140.72;0.00;52183.91;4995573;28;19918;-71
2023/07/08 07:17:41;;;;;;;;;;;;;;;-140.72;0.00;52183.91;4992970;28;20379;-70
2023/07/08 07:20:06;;;;;;;;;;;;;;;-140.72;0.00;52177.81;4997400;28;19924;-70
2023/07/08 07:22:32;;;;;;;;;;;;;;;-140.72;0.00;52118.97;4989984;28;19918;-71
2023/07/08 07:24:57;;;;;;;;;;;;;;;-140.72;0.00;52171.72;4974145;28;19980;-71
2023/07/08 07:27:23;;;;;;;;;;;;;;;-140.72;0.00;52139.25;4986215;28;19922;-71
2023/07/08 07:29:49;;;;;;;;;;;;;;;-140.72;0.00;52112.88;4989612;28;19929;-77
2023/07/08 07:32:15;;;;;;;;;;;;;;;-140.72;0.00;52137.22;4996170;28;19970;-74
2023/07/08 07:34:41;;;;;;;;;;;;;;;-140.72;0.00;52137.22;4992517;28;19925;-73
2023/07/08 07:37:10;;;;;;;;;;;;;;;-140.72;0.00;52145.34;4992791;28;19922;-73
2023/07/08 07:39:35;;;;;;;;;;;;;;;-140.72;0.00;52143.31;4978936;28;19971;-74
2023/07/08 07:42:00;;;;;;;;;;;;;;;-140.72;0.00;52106.78;4984074;28;19921;-73
2023/07/08 07:44:26;;;;;;;;;;;;;;;-140.72;0.00;52094.63;4988193;28;20016;-73
2023/07/08 07:46:52;;;;;;;;;;;;;;;-140.72;0.00;52080.41;4986797;28;19922;-71
2023/07/08 07:49:17;;;;;;;;;;;;;;;-140.72;0.00;52092.59;4971231;28;20013;-72
2023/07/08 07:51:43;;;;;;;;;;;;;;;-140.72;0.00;52082.44;4993159;28;19969;-72
2023/07/08 07:54:09;;;;;;;;;;;;;;;-140.72;0.00;52104.75;4987265;28;19917;-70
2023/07/08 07:56:34;;;;;;;;;;;;;;;-140.72;0.00;52129.13;4994599;28;19922;-71
2023/07/08 07:58:59;;;;;;;;;;;;;;;-140.72;0.00;52100.72;4970156;28;19918;-71
2023/07/08 08:01:25;;;;;;;;;;;;;;;-140.72;0.00;52102.75;4993998;28;20008;-72
2023/07/08 08:03:50;;;;;;;;;;;;;;;-140.72;0.00;52102.75;4974792;28;20018;-71
2023/07/08 08:06:17;;;;;;;;;;;;;;;-140.72;0.00;52082.44;4988427;28;19917;-72
2023/07/08 08:08:43;;;;;;;;;;;;;;;-140.72;0.00;52045.94;4984915;28;19918;-71
2023/07/08 08:11:08;;;;;;;;;;;;;;;-140.72;0.00;52068.25;4977195;28;20244;-72
2023/07/08 08:13:33;;;;;;;;;;;;;;;-140.72;0.00;52039.84;4987561;28;19957;-72
2023/07/08 08:15:59;;;;;;;;;;;;;;;-140.72;0.00;52049.97;4990246;28;19922;-71
2023/07/08 08:18:25;;;;;;;;;;;;;;;-140.72;0.00;52001.28;4970960;28;19918;-72
2023/07/08 08:20:51;;;;;;;;;;;;;;;-140.72;0.00;52001.28;4988341;28;20291;-71
2023/07/08 08:23:16;;;;;;;;;;;;;;;-140.72;0.00;52041.88;4985599;28;19926;-73
2023/07/08 08:25:41;;;;;;;;;;;;;;;-140.72;0.00;52029.69;4981458;28;19925;-72
2023/07/08 08:28:07;;;;;;;;;;;;;;;-140.72;0.00;52031.72;5004304;28;19968;-73
2023/07/08 08:30:32;;;;;;;;;;;;;;;-140.72;0.00;51989.13;4984895;28;20355;-79
2023/07/08 08:32:57;;;;;;;;;;;;;;;-140.72;0.00;51942.44;4969116;28;19992;-73
2023/07/08 08:35:23;;;;;;;;;;;;;;;-140.72;0.00;51960.72;4994513;28;19921;-75
2023/07/08 08:37:48;;;;;;;;;;;;;;;-140.72;0.00;51981.00;4976052;28;19918;-73
2023/07/08 08:40:16;;;;;;;;;;;;;;;-140.72;0.00;51976.94;4993269;28;19929;-73
2023/07/08 08:42:43;;;;;;;;;;;;;;;-140.72;0.00;51968.81;4980423;28;20325;-76
2023/07/08 08:45:11;;;;;;;;;;;;;;;-140.72;0.00;51920.13;4975355;28;19944;-72
2023/07/08 08:47:41;;;;;;;;;;;;;;;-140.72;0.00;51981.00;4974850;28;19925;-72
2023/07/08 08:50:25;;;;;;;;;;;;;;;-140.72;0.00;51926.22;4991303;28;20295;-72
2023/07/08 08:52:54;;;;;;;;;;;;;;;-140.72;0.00;51938.41;4974290;28;19965;-72
2023/07/08 08:55:19;;;;;;;;;;;;;;;-140.72;0.00;51936.38;4984979;28;20449;-72
2023/07/08 08:57:52;;;;;;;;;;;;;;;-140.72;0.00;51895.78;4992891;28;19949;-72
2023/07/08 09:00:20;;;;;;;;;;;;;;;-140.72;0.00;51871.44;4992504;28;19922;-72
2023/07/08 09:03:15;;;;;;;;;;;;;;;-140.72;0.00;51893.75;4975184;28;19922;-72
2023/07/08 09:05:42;;;;;;;;;;;;;;;-140.72;0.00;51879.56;4974989;28;20000;-72
2023/07/08 09:08:30;;;;;;;;;;;;;;;-140.72;0.00;51863.31;4992859;28;19948;-72
2023/07/08 09:11:18;;;;;;;;;;;;;;;-140.72;0.00;51883.63;4990672;28;19922;-72
2023/07/08 09:13:43;;;;;;;;;;;;;;;-140.72;0.00;51875.50;4992307;28;19926;-72
2023/07/08 09:16:27;;;;;;;;;;;;;;;-140.72;0.00;51857.25;4989498;28;20013;-72
2023/07/08 09:18:58;;;;;;;;;;;;;;;-140.72;0.00;51834.91;4983290;28;19922;-73
2023/07/08 09:21:28;;;;;;;;;;;;;;;-140.72;0.00;51838.97;4963697;28;20333;-73
2023/07/08 09:24:00;;;;;;;;;;;;;;;-140.72;0.00;51794.34;4982878;28;19918;-72
2023/07/08 09:26:26;;;;;;;;;;;;;;;-140.72;0.00;51818.69;4992487;28;20321;-73
2023/07/08 09:28:51;;;;;;;;;;;;;;;-140.72;0.00;51824.78;5000989;28;20375;-73
2023/07/08 09:31:27;;;;;;;;;;;;;;;-140.72;0.00;51812.59;4987189;28;20052;-73
2023/07/08 09:33:54;;;;;;;;;;;;;;;-140.72;0.00;51774.06;4985776;28;20297;-73
2023/07/08 09:36:23;;;;;;;;;;;;;;;-140.72;0.00;51725.38;4992325;28;19918;-73
2023/07/08 09:38:49;;;;;;;;;;;;;;;-140.72;0.00;51745.66;4991817;28;20354;-74
2023/07/08 09:41:17;;;;;;;;;;;;;;;-140.72;0.00;51719.28;4985193;28;19922;-73
2023/07/08 09:43:43;;;;;;;;;;;;;;;-140.72;0.00;51713.19;4993082;28;19918;-74
2023/07/08 09:46:11;;;;;;;;;;;;;;;-140.72;0.00;51688.84;4991979;28;20415;-73
2023/07/08 09:48:37;;;;;;;;;;;;;;;-140.72;0.00;51676.69;4988111;28;19929;-73
2023/07/08 09:51:02;;;;;;;;;;;;;;;-140.72;0.00;51628.00;4979684;28;19922;-72
2023/07/08 09:53:28;;;;;;;;;;;;;;;-140.72;0.00;51621.91;4997503;28;20060;-73
2023/07/08 09:55:56;;;;;;;;;;;;;;;-140.72;0.00;51581.31;4986606;28;20272;-73
2023/07/08 09:58:24;;;;;;;;;;;;;;;-140.72;0.00;51597.56;4986002;28;20360;-73
2023/07/08 10:01:00;;;;;;;;;;;;;;;-140.72;0.00;51632.03;4996070;28;19928;-73
2023/07/08 10:03:31;;;;;;;;;;;;;;;-140.72;0.00;51595.53;4995337;28;19918;-77
2023/07/08 10:06:00;;;;;;;;;;;;;;;-140.72;0.00;51563.06;4982159;28;19968;-73
2023/07/08 10:08:28;;;;;;;;;;;;;;;-140.72;0.00;51569.16;4989806;28;19964;-73
2023/07/08 10:11:09;;;;;;;;;;;;;;;-140.72;0.00;51540.75;5002155;28;19918;-73
2023/07/08 10:13:38;;;;;;;;;;;;;;;-140.72;0.00;51546.84;5010306;28;19918;-73
2023/07/08 10:16:15;;;;;;;;;;;;;;;-140.72;0.00;51508.28;4998060;28;20021;-73
2023/07/08 10:18:41;;;;;;;;;;;;;;;-140.72;0.00;51477.88;4988039;28;19918;-73
2023/07/08 10:21:29;;;;;;;;;;;;;;;-140.72;0.00;51477.88;4997901;28;19918;-73
2023/07/08 10:24:10;;;;;;;;;;;;;;;-140.72;0.00;51477.88;4988879;28;19925;-73
2023/07/08 10:26:38;;;;;;;;;;;;;;;-140.72;0.00;51498.16;4992615;28;19922;-73
2023/07/08 10:29:23;;;;;;;;;;;;;;;-140.72;0.00;51396.72;4988410;28;19975;-73
2023/07/08 10:32:00;;;;;;;;;;;;;;;-140.72;0.00;51550.91;4990626;28;19922;-73
2023/07/08 10:34:37;;;;;;;;;;;;;;;-140.72;0.00;51473.81;4991331;28;19921;-73
2023/07/08 10:37:03;;;;;;;;;;;;;;;-140.72;0.00;51435.25;4988252;28;20387;-73
2023/07/08 10:39:31;;;;;;;;;;;;;;;-140.72;0.00;51437.28;4991900;28;20016;-73
2023/07/08 10:42:16;;;;;;;;;;;;;;;-140.72;0.00;51400.78;4995053;28;19924;-74
2023/07/08 10:44:48;;;;;;;;;;;;;;;-140.72;0.00;51447.44;4992262;28;19928;-73
2023/07/08 10:47:33;;;;;;;;;;;;;;;-140.72;0.00;51400.78;4982532;28;19918;-73
2023/07/08 10:49:58;;;;;;;;;;;;;;;-140.72;0.00;51356.16;4989317;28;19925;-74
2023/07/08 10:52:41;;;;;;;;;;;;;;;-140.72;0.00;51346.00;4992856;28;19918;-73
2023/07/08 10:55:27;;;;;;;;;;;;;;;-140.72;0.00;51346.00;4993454;28;19922;-73
2023/07/08 10:57:55;;;;;;;;;;;;;;;-140.72;0.00;51406.88;4995095;28;19929;-74
2023/07/08 11:00:32;;;;;;;;;;;;;;;-140.72;0.00;51412.94;4991633;28;19918;-73
2023/07/08 11:02:57;;;;;;;;;;;;;;;-140.72;0.00;51364.25;4991365;28;19960;-73
2023/07/08 11:05:23;;;;;;;;;;;;;;;-140.72;0.00;51333.84;4987332;28;20292;-74
2023/07/08 11:07:54;;;;;;;;;;;;;;;-140.72;0.00;51356.16;4989659;28;19989;-75
2023/07/08 11:10:29;;;;;;;;;;;;;;;-140.72;0.00;51335.88;4989049;28;19930;-73
2023/07/08 11:13:12;;;;;;;;;;;;;;;-140.72;0.00;51323.69;4983493;28;19928;-75
2023/07/08 11:15:51;;;;;;;;;;;;;;;-140.72;0.00;51346.00;4968008;28;20304;-73
2023/07/08 11:18:23;;;;;;;;;;;;;;;-140.72;0.00;51427.16;4988318;28;19978;-72
2023/07/08 11:20:48;;;;;;;;;;;;;;;-140.72;0.00;51427.16;4986981;28;20495;-72
2023/07/08 11:23:16;;;;;;;;;;;;;;;-140.72;0.00;51362.22;4974778;28;19962;-72
2023/07/08 11:25:43;;;;;;;;;;;;;;;-140.72;0.00;51343.97;4995378;28;20017;-73
2023/07/08 11:28:10;;;;;;;;;;;;;;;-140.72;0.00;51287.19;4973477;28;19928;-79
2023/07/08 11:30:41;;;;;;;;;;;;;;;-140.72;0.00;51311.53;4975926;28;19922;-72
2023/07/08 11:33:11;;;;;;;;;;;;;;;-140.72;0.00;51287.19;4986426;28;20004;-73
2023/07/08 11:35:36;;;;;;;;;;;;;;;-140.72;0.00;51287.19;4958047;28;20012;-74
2023/07/08 11:38:03;;;;;;;;;;;;;;;-140.72;0.00;51266.88;4991377;28;20010;-73
2023/07/08 11:40:28;;;;;;;;;;;;;;;-140.72;0.00;51291.22;4977145;28;19917;-72
2023/07/08 11:43:00;;;;;;;;;;;;;;;-140.72;0.00;51293.25;4971805;28;19918;-72
2023/07/08 11:45:30;;;;;;;;;;;;;;;-140.72;0.00;51248.63;4985237;28;19925;-72
2023/07/08 11:48:03;;;;;;;;;;;;;;;-140.72;0.00;51352.09;4977881;28;20332;-72
2023/07/08 11:50:30;;;;;;;;;;;;;;;-140.72;0.00;51335.88;4977711;28;20395;-72
2023/07/08 11:52:58;;;;;;;;;;;;;;;-140.72;0.00;51264.88;4976165;28;20410;-71
2023/07/08 11:55:47;;;;;;;;;;;;;;;-140.72;0.00;51234.44;4994342;28;20013;-72
2023/07/08 11:58:26;;;;;;;;;;;;;;;-140.72;0.00;51222.25;4988361;28;19965;-72
2023/07/08 12:00:59;;;;;;;;;;;;;;;-140.72;0.00;51212.13;4991087;28;19969;-72
2023/07/08 12:03:34;;;;;;;;;;;;;;;-140.72;0.00;51236.47;4963325;28;20262;-71
2023/07/08 12:06:01;;;;;;;;;;;;;;;-140.72;0.00;51216.19;4986806;28;20522;-71
2023/07/08 12:08:37;;;;;;;;;;;;;;;-140.72;0.00;51201.97;4990924;28;20368;-71
2023/07/08 12:11:03;;;;;;;;;;;;;;;-140.72;0.00;51254.72;4980722;28;20388;-71
2023/07/08 12:13:30;;;;;;;;;;;;;;;-140.72;0.00;51185.75;4984462;28;19959;-71
2023/07/08 12:15:55;;;;;;;;;;;;;;;-140.72;0.00;51230.38;4990696;28;20299;-72
2023/07/08 12:18:20;;;;;;;;;;;;;;;-140.72;0.00;51238.50;4992774;28;19925;-73
2023/07/08 12:20:47;;;;;;;;;;;;;;;-140.72;0.00;51222.25;4981190;28;19957;-72
2023/07/08 12:23:14;;;;;;;;;;;;;;;-140.72;0.00;51189.81;4983926;28;19979;-72
2023/07/08 12:25:40;;;;;;;;;;;;;;;-140.72;0.00;51165.47;4984100;28;20291;-72
2023/07/08 12:28:05;;;;;;;;;;;;;;;-140.72;0.00;51128.94;4988739;28;19929;-72
2023/07/08 12:30:32;;;;;;;;;;;;;;;-140.72;0.00;51173.56;4993707;28;19917;-72
2023/07/08 12:32:59;;;;;;;;;;;;;;;-140.72;0.00;51139.09;4991486;28;20398;-72
2023/07/08 12:35:26;;;;;;;;;;;;;;;-140.72;0.00;51102.59;4991544;28;19929;-74
2023/07/08 12:37:53;;;;;;;;;;;;;;;-140.72;0.00;51102.59;4991232;28;19925;-72
2023/07/08 12:40:20;;;;;;;;;;;;;;;-140.72;0.00;51120.84;4975726;28;20284;-71